sensor_id;sensor_type;location;lat;lon;timestamp;pressure;altitude;pressure_sealevel;temperature;humidity
13420;BME280;6781;58.440;15.470;2022-11-20T00:00:30;102082.91;;;-0.93;100.00
13420;BME280;6781;58.440;15.470;2022-11-20T00:03:10;102067.63;;;-0.90;100.00
13420;BME280;6781;58.440;15.470;2022-11-20T00:05:37;102076.09;;;-0.88;100.00
13420;BME280;6781;58.440;15.470;2022-11-20T00:08:08;102073.53;;;-0.88;100.00
13420;BME280;6781;58.440;15.470;2022-11-20T00:10:49;102065.06;;;-0.90;100.00
13420;BME280;6781;58.440;15.470;2022-11-20T00:13:29;102076.06;;;-0.85;100.00
13420;BME280;6781;58.440;15.470;2022-11-20T00:16:02;102069.28;;;-0.87;100.00
13420;BME280;6781;58.440;15.470;2022-11-20T00:18:42;102059.16;;;-0.92;100.00
13420;BME280;6781;58.440;15.470;2022-11-20T00:21:25;102059.97;;;-0.87;100.00
13420;BME280;6781;58.440;15.470;2022-11-20T00:24:08;102055.69;;;-0.85;100.00
13420;BME280;6781;58.440;15.470;2022-11-20T00:26:48;102053.16;;;-0.85;100.00
13420;BME280;6781;58.440;15.470;2022-11-20T00:29:16;102059.09;;;-0.86;100.00
13420;BME280;6781;58.440;15.470;2022-11-20T00:31:58;102059.13;;;-0.89;100.00
13420;BME280;6781;58.440;15.470;2022-11-20T00:34:25;102045.59;;;-0.94;100.00
13420;BME280;6781;58.440;15.470;2022-11-20T00:36:54;102042.22;;;-0.99;100.00
13420;BME280;6781;58.440;15.470;2022-11-20T00:39:20;102039.66;;;-0.96;100.00
13420;BME280;6781;58.440;15.470;2022-11-20T00:41:47;102038.81;;;-0.98;100.00
13420;BME280;6781;58.440;15.470;2022-11-20T00:44:15;102026.94;;;-0.96;100.00
13420;BME280;6781;58.440;15.470;2022-11-20T00:46:41;102029.47;;;-0.96;100.00
13420;BME280;6781;58.440;15.470;2022-11-20T00:49:10;102034.59;;;-0.98;100.00
13420;BME280;6781;58.440;15.470;2022-11-20T00:51:36;102015.03;;;-0.92;100.00
13420;BME280;6781;58.440;15.470;2022-11-20T00:54:05;102018.47;;;-0.98;100.00
13420;BME280;6781;58.440;15.470;2022-11-20T00:56:32;102014.22;;;-0.99;100.00
13420;BME280;6781;58.440;15.470;2022-11-20T00:58:59;102007.50;;;-1.06;100.00
13420;BME280;6781;58.440;15.470;2022-11-20T01:01:26;102006.63;;;-1.04;100.00
13420;BME280;6781;58.440;15.470;2022-11-20T01:03:55;102014.25;;;-1.01;100.00
13420;BME280;6781;58.440;15.470;2022-11-20T01:06:24;101998.97;;;-1.01;100.00
13420;BME280;6781;58.440;15.470;2022-11-20T01:08:52;102003.19;;;-0.98;100.00
13420;BME280;6781;58.440;15.470;2022-11-20T01:11:20;102004.06;;;-1.01;100.00
13420;BME280;6781;58.440;15.470;2022-11-20T01:13:48;101999.84;;;-1.05;100.00
13420;BME280;6781;58.440;15.470;2022-11-20T01:16:16;102008.34;;;-1.04;100.00
13420;BME280;6781;58.440;15.470;2022-11-20T01:18:44;102003.19;;;-0.98;100.00
13420;BME280;6781;58.440;15.470;2022-11-20T01:21:12;102000.69;;;-1.04;100.00
13420;BME280;6781;58.440;15.470;2022-11-20T01:23:53;101996.44;;;-1.02;100.00
13420;BME280;6781;58.440;15.470;2022-11-20T01:26:20;102006.66;;;-1.05;100.00
13420;BME280;6781;58.440;15.470;2022-11-20T01:28:47;101996.47;;;-1.05;100.00
13420;BME280;6781;58.440;15.470;2022-11-20T01:31:18;102001.53;;;-1.02;100.00
13420;BME280;6781;58.440;15.470;2022-11-20T01:33:49;101993.88;;;-1.01;100.00
13420;BME280;6781;58.440;15.470;2022-11-20T01:36:19;101998.13;;;-1.01;100.00
13420;BME280;6781;58.440;15.470;2022-11-20T01:38:46;102000.66;;;-1.01;100.00
13420;BME280;6781;58.440;15.470;2022-11-20T01:41:14;102004.03;;;-0.96;100.00
13420;BME280;6781;58.440;15.470;2022-11-20T01:44:02;101994.66;;;-0.94;100.00
13420;BME280;6781;58.440;15.470;2022-11-20T01:46:28;102001.44;;;-0.93;100.00
13420;BME280;6781;58.440;15.470;2022-11-20T01:48:56;101989.56;;;-0.94;100.00
13420;BME280;6781;58.440;15.470;2022-11-20T01:51:27;101989.59;;;-0.97;100.00
13420;BME280;6781;58.440;15.470;2022-11-20T01:53:55;101992.16;;;-0.99;100.00
13420;BME280;6781;58.440;15.470;2022-11-20T01:56:29;101986.19;;;-0.96;100.00
13420;BME280;6781;58.440;15.470;2022-11-20T01:58:58;101975.16;;;-0.95;100.00
13420;BME280;6781;58.440;15.470;2022-11-20T02:01:27;101975.22;;;-1.03;100.00
13420;BME280;6781;58.440;15.470;2022-11-20T02:03:54;101987.03;;;-0.94;100.00
13420;BME280;6781;58.440;15.470;2022-11-20T02:06:22;101982.78;;;-0.92;100.00
13420;BME280;6781;58.440;15.470;2022-11-20T02:08:50;101982.78;;;-0.95;100.00
13420;BME280;6781;58.440;15.470;2022-11-20T02:11:17;101977.72;;;-0.95;100.00
13420;BME280;6781;58.440;15.470;2022-11-20T02:13:46;101972.59;;;-0.92;100.00
13420;BME280;6781;58.440;15.470;2022-11-20T02:16:14;101967.50;;;-0.92;100.00
13420;BME280;6781;58.440;15.470;2022-11-20T02:18:42;101964.94;;;-0.90;100.00
13420;BME280;6781;58.440;15.470;2022-11-20T02:21:12;101959.84;;;-0.92;100.00
13420;BME280;6781;58.440;15.470;2022-11-20T02:26:12;101953.00;;;-0.84;100.00
13420;BME280;6781;58.440;15.470;2022-11-20T02:28:41;101949.59;;;-0.83;100.00
13420;BME280;6781;58.440;15.470;2022-11-20T02:31:08;101945.34;;;-0.84;100.00
13420;BME280;6781;58.440;15.470;2022-11-20T02:33:34;101942.78;;;-0.81;100.00
13420;BME280;6781;58.440;15.470;2022-11-20T02:36:02;101938.53;;;-0.82;100.00
13420;BME280;6781;58.440;15.470;2022-11-20T02:38:28;101941.91;;;-0.80;100.00
13420;BME280;6781;58.440;15.470;2022-11-20T02:40:55;101928.31;;;-0.79;100.00
13420;BME280;6781;58.440;15.470;2022-11-20T02:43:23;101921.53;;;-0.80;100.00
13420;BME280;6781;58.440;15.470;2022-11-20T02:45:50;101921.53;;;-0.80;100.00
13420;BME280;6781;58.440;15.470;2022-11-20T02:48:17;101930.81;;;-0.73;100.00
13420;BME280;6781;58.440;15.470;2022-11-20T02:50:44;101919.75;;;-0.72;100.00
13420;BME280;6781;58.440;15.470;2022-11-20T02:53:11;101919.78;;;-0.75;100.00
13420;BME280;6781;58.440;15.470;2022-11-20T02:55:38;101914.66;;;-0.72;100.00
13420;BME280;6781;58.440;15.470;2022-11-20T02:58:06;101912.09;;;-0.69;100.00
13420;BME280;6781;58.440;15.470;2022-11-20T03:00:34;101901.09;;;-0.72;100.00
13420;BME280;6781;58.440;15.470;2022-11-20T03:03:01;101901.91;;;-0.70;100.00
13420;BME280;6781;58.440;15.470;2022-11-20T03:08:04;101904.50;;;-0.75;100.00
13420;BME280;6781;58.440;15.470;2022-11-20T03:10:31;101896.84;;;-0.73;100.00
13420;BME280;6781;58.440;15.470;2022-11-20T03:12:58;101901.94;;;-0.73;100.00
13420;BME280;6781;58.440;15.470;2022-11-20T03:15:25;101897.72;;;-0.74;100.00
13420;BME280;6781;58.440;15.470;2022-11-20T03:17:54;101892.59;;;-0.73;100.00
13420;BME280;6781;58.440;15.470;2022-11-20T03:20:22;101893.44;;;-0.71;100.00
13420;BME280;6781;58.440;15.470;2022-11-20T03:22:50;101886.66;;;-0.73;100.00
13420;BME280;6781;58.440;15.470;2022-11-20T03:25:16;101890.03;;;-0.71;100.00
13420;BME280;6781;58.440;15.470;2022-11-20T03:27:43;101885.84;;;-0.74;100.00
13420;BME280;6781;58.440;15.470;2022-11-20T03:30:10;101882.41;;;-0.73;100.00
13420;BME280;6781;58.440;15.470;2022-11-20T03:32:37;101891.72;;;-0.70;100.00
13420;BME280;6781;58.440;15.470;2022-11-20T03:35:09;101889.16;;;-0.69;100.00
13420;BME280;6781;58.440;15.470;2022-11-20T03:37:36;101879.06;;;-0.75;100.00
13420;BME280;6781;58.440;15.470;2022-11-20T03:40:05;101878.16;;;-0.71;100.00
13420;BME280;6781;58.440;15.470;2022-11-20T03:42:32;101876.44;;;-0.69;100.00
13420;BME280;6781;58.440;15.470;2022-11-20T03:45:11;101868.81;;;-0.72;100.00
13420;BME280;6781;58.440;15.470;2022-11-20T03:47:39;101873.91;;;-0.72;100.00
13420;BME280;6781;58.440;15.470;2022-11-20T03:50:06;101865.38;;;-0.68;100.00
13420;BME280;6781;58.440;15.470;2022-11-20T03:52:35;101858.63;;;-0.72;100.00
13420;BME280;6781;58.440;15.470;2022-11-20T03:55:02;101852.69;;;-0.71;100.00
13420;BME280;6781;58.440;15.470;2022-11-20T03:57:30;101853.56;;;-0.72;100.00
13420;BME280;6781;58.440;15.470;2022-11-20T03:59:57;101853.59;;;-0.75;100.00
13420;BME280;6781;58.440;15.470;2022-11-20T04:02:23;101848.47;;;-0.73;100.00
13420;BME280;6781;58.440;15.470;2022-11-20T04:04:50;101843.38;;;-0.72;100.00
13420;BME280;6781;58.440;15.470;2022-11-20T04:07:17;101834.91;;;-0.74;100.00
13420;BME280;6781;58.440;15.470;2022-11-20T04:09:45;101827.28;;;-0.75;100.00
13420;BME280;6781;58.440;15.470;2022-11-20T04:12:12;101819.66;;;-0.77;100.00
13420;BME280;6781;58.440;15.470;2022-11-20T04:14:39;101816.22;;;-0.73;100.00
13420;BME280;6781;58.440;15.470;2022-11-20T04:17:06;101810.28;;;-0.73;100.00
13420;BME280;6781;58.440;15.470;2022-11-20T04:19:33;101804.38;;;-0.77;100.00
13420;BME280;6781;58.440;15.470;2022-11-20T04:22:00;101804.41;;;-0.78;100.00
13420;BME280;6781;58.440;15.470;2022-11-20T04:24:28;101794.19;;;-0.77;100.00
13420;BME280;6781;58.440;15.470;2022-11-20T04:26:56;101790.88;;;-0.82;100.00
13420;BME280;6781;58.440;15.470;2022-11-20T04:29:23;101783.25;;;-0.83;100.00
13420;BME280;6781;58.440;15.470;2022-11-20T04:31:50;101773.84;;;-0.78;100.00
13420;BME280;6781;58.440;15.470;2022-11-20T04:34:17;101765.41;;;-0.82;100.00
13420;BME280;6781;58.440;15.470;2022-11-20T04:36:44;101764.56;;;-0.84;100.00
13420;BME280;6781;58.440;15.470;2022-11-20T04:39:11;101768.00;;;-0.86;100.00
13420;BME280;6781;58.440;15.470;2022-11-20T04:41:40;101759.41;;;-0.78;100.00
13420;BME280;6781;58.440;15.470;2022-11-20T04:44:09;101753.56;;;-0.84;100.00
13420;BME280;6781;58.440;15.470;2022-11-20T04:46:49;101750.19;;;-0.88;100.00
13420;BME280;6781;58.440;15.470;2022-11-20T04:49:20;101740.88;;;-0.89;100.00
13420;BME280;6781;58.440;15.470;2022-11-20T04:51:52;101740.88;;;-0.89;100.00
13420;BME280;6781;58.440;15.470;2022-11-20T04:54:19;101743.44;;;-0.90;100.00
13420;BME280;6781;58.440;15.470;2022-11-20T04:56:50;101741.78;;;-0.93;100.00
13420;BME280;6781;58.440;15.470;2022-11-20T04:59:23;101724.81;;;-0.94;100.00
13420;BME280;6781;58.440;15.470;2022-11-20T05:01:50;101725.72;;;-0.98;100.00
13420;BME280;6781;58.440;15.470;2022-11-20T05:04:20;101720.59;;;-0.95;100.00
13420;BME280;6781;58.440;15.470;2022-11-20T05:06:47;101716.31;;;-0.93;100.00
13420;BME280;6781;58.440;15.470;2022-11-20T05:09:15;101721.53;;;-1.02;100.00
13420;BME280;6781;58.440;15.470;2022-11-20T05:11:44;101716.38;;;-0.96;100.00
13420;BME280;6781;58.440;15.470;2022-11-20T05:14:12;101716.38;;;-0.96;100.00
13420;BME280;6781;58.440;15.470;2022-11-20T05:16:53;101716.38;;;-0.96;100.00
13420;BME280;6781;58.440;15.470;2022-11-20T05:19:35;101707.91;;;-0.98;100.00
13420;BME280;6781;58.440;15.470;2022-11-20T05:22:08;101710.53;;;-1.04;100.00
13420;BME280;6781;58.440;15.470;2022-11-20T05:24:37;101708.03;;;-1.07;100.00
13420;BME280;6781;58.440;15.470;2022-11-20T05:27:06;101717.28;;;-1.02;100.00
13420;BME280;6781;58.440;15.470;2022-11-20T05:29:37;101713.06;;;-1.04;100.00
13420;BME280;6781;58.440;15.470;2022-11-20T05:32:09;101714.75;;;-1.03;100.00
13420;BME280;6781;58.440;15.470;2022-11-20T05:34:37;101721.63;;;-1.08;100.00
13420;BME280;6781;58.440;15.470;2022-11-20T05:37:04;101713.09;;;-1.06;100.00
13420;BME280;6781;58.440;15.470;2022-11-20T05:39:31;101710.59;;;-1.10;100.00
13420;BME280;6781;58.440;15.470;2022-11-20T05:41:58;101714.78;;;-1.06;100.00
13420;BME280;6781;58.440;15.470;2022-11-20T05:44:43;101719.84;;;-1.03;100.00
13420;BME280;6781;58.440;15.470;2022-11-20T05:47:11;101716.44;;;-1.02;100.00
13420;BME280;6781;58.440;15.470;2022-11-20T05:49:40;101719.84;;;-1.03;100.00
13420;BME280;6781;58.440;15.470;2022-11-20T05:52:07;101717.28;;;-1.02;100.00
13420;BME280;6781;58.440;15.470;2022-11-20T05:54:35;101709.66;;;-1.03;100.00
13420;BME280;6781;58.440;15.470;2022-11-20T05:57:04;101714.75;;;-1.03;100.00
13420;BME280;6781;58.440;15.470;2022-11-20T05:59:31;101719.81;;;-1.02;100.00
13420;BME280;6781;58.440;15.470;2022-11-20T06:02:06;101704.63;;;-1.06;100.00
13420;BME280;6781;58.440;15.470;2022-11-20T06:04:36;101713.06;;;-1.04;100.00
13420;BME280;6781;58.440;15.470;2022-11-20T06:07:04;101711.34;;;-1.02;100.00
13420;BME280;6781;58.440;15.470;2022-11-20T06:09:31;101713.16;;;-1.10;100.00
13420;BME280;6781;58.440;15.470;2022-11-20T06:11:58;101707.16;;;-1.05;100.00
13420;BME280;6781;58.440;15.470;2022-11-20T06:14:32;101710.47;;;-1.00;100.00
13420;BME280;6781;58.440;15.470;2022-11-20T06:17:01;101711.38;;;-1.05;100.00
13420;BME280;6781;58.440;15.470;2022-11-20T06:19:46;101707.97;;;-1.03;100.00
13420;BME280;6781;58.440;15.470;2022-11-20T06:22:13;101710.56;;;-1.07;100.00
13420;BME280;6781;58.440;15.470;2022-11-20T06:24:39;101710.56;;;-1.07;100.00
13420;BME280;6781;58.440;15.470;2022-11-20T06:27:06;101711.38;;;-1.05;100.00
13420;BME280;6781;58.440;15.470;2022-11-20T06:29:34;101705.50;;;-1.09;100.00
13420;BME280;6781;58.440;15.470;2022-11-20T06:32:01;101703.78;;;-1.07;100.00
13420;BME280;6781;58.440;15.470;2022-11-20T06:34:28;101699.50;;;-1.05;100.00
13420;BME280;6781;58.440;15.470;2022-11-20T06:36:56;101699.44;;;-1.00;100.00
13420;BME280;6781;58.440;15.470;2022-11-20T06:39:25;101698.66;;;-1.04;100.00
13420;BME280;6781;58.440;15.470;2022-11-20T06:41:52;101699.47;;;-1.02;100.00
13420;BME280;6781;58.440;15.470;2022-11-20T06:44:33;101696.09;;;-1.02;100.00
13420;BME280;6781;58.440;15.470;2022-11-20T06:47:01;101689.28;;;-1.00;100.00
13420;BME280;6781;58.440;15.470;2022-11-20T06:49:27;101686.66;;;-0.95;100.00
13420;BME280;6781;58.440;15.470;2022-11-20T06:51:56;101684.13;;;-0.97;100.00
13420;BME280;6781;58.440;15.470;2022-11-20T06:54:23;101677.38;;;-0.98;100.00
13420;BME280;6781;58.440;15.470;2022-11-20T06:56:49;101674.00;;;-1.00;100.00
13420;BME280;6781;58.440;15.470;2022-11-20T06:59:16;101672.28;;;-0.98;100.00
13420;BME280;6781;58.440;15.470;2022-11-20T07:01:43;101675.72;;;-1.02;100.00
13420;BME280;6781;58.440;15.470;2022-11-20T07:04:11;101665.56;;;-1.04;100.00
13420;BME280;6781;58.440;15.470;2022-11-20T07:06:40;101662.94;;;-0.99;100.00
13420;BME280;6781;58.440;15.470;2022-11-20T07:09:09;101658.72;;;-1.00;100.00
13420;BME280;6781;58.440;15.470;2022-11-20T07:11:36;101648.59;;;-1.05;100.00
13420;BME280;6781;58.440;15.470;2022-11-20T07:14:03;101651.88;;;-0.95;100.00
13420;BME280;6781;58.440;15.470;2022-11-20T07:16:30;101644.22;;;-0.95;100.00
13420;BME280;6781;58.440;15.470;2022-11-20T07:18:57;101643.31;;;-0.91;100.00
13420;BME280;6781;58.440;15.470;2022-11-20T07:21:24;101633.94;;;-0.87;100.00
13420;BME280;6781;58.440;15.470;2022-11-20T07:23:50;101623.00;;;-0.94;100.00
13420;BME280;6781;58.440;15.470;2022-11-20T07:26:19;101636.53;;;-0.90;100.00
13420;BME280;6781;58.440;15.470;2022-11-20T07:28:46;101614.56;;;-0.98;100.00
13420;BME280;6781;58.440;15.470;2022-11-20T07:31:14;101610.28;;;-0.95;100.00
13420;BME280;6781;58.440;15.470;2022-11-20T07:33:41;101616.19;;;-0.92;100.00
13420;BME280;6781;58.440;15.470;2022-11-20T07:36:08;101594.09;;;-0.90;100.00
13420;BME280;6781;58.440;15.470;2022-11-20T07:38:36;101604.28;;;-0.90;100.00
13420;BME280;6781;58.440;15.470;2022-11-20T07:41:03;101592.34;;;-0.88;100.00
13420;BME280;6781;58.440;15.470;2022-11-20T07:43:32;101582.19;;;-0.88;100.00
13420;BME280;6781;58.440;15.470;2022-11-20T07:45:59;101597.34;;;-0.82;100.00
13420;BME280;6781;58.440;15.470;2022-11-20T07:48:29;101588.84;;;-0.81;100.00
13420;BME280;6781;58.440;15.470;2022-11-20T07:50:56;101584.66;;;-0.83;100.00
13420;BME280;6781;58.440;15.470;2022-11-20T07:53:25;101571.84;;;-0.79;100.00
13420;BME280;6781;58.440;15.470;2022-11-20T07:55:52;101573.56;;;-0.81;100.00
13420;BME280;6781;58.440;15.470;2022-11-20T07:58:21;101568.47;;;-0.79;100.00
13420;BME280;6781;58.440;15.470;2022-11-20T08:00:49;101563.41;;;-0.81;100.00
13420;BME280;6781;58.440;15.470;2022-11-20T08:03:16;101562.38;;;-0.71;100.00
13420;BME280;6781;58.440;15.470;2022-11-20T08:05:42;101550.63;;;-0.79;100.00
13420;BME280;6781;58.440;15.470;2022-11-20T08:08:11;101549.69;;;-0.74;100.00
13420;BME280;6781;58.440;15.470;2022-11-20T08:10:37;101549.66;;;-0.71;100.00
13420;BME280;6781;58.440;15.470;2022-11-20T08:13:04;101546.28;;;-0.73;100.00
13420;BME280;6781;58.440;15.470;2022-11-20T08:15:49;101542.75;;;-0.66;100.00
13420;BME280;6781;58.440;15.470;2022-11-20T08:18:20;101525.84;;;-0.70;100.00
13420;BME280;6781;58.440;15.470;2022-11-20T08:20:47;101526.69;;;-0.69;100.00
13420;BME280;6781;58.440;15.470;2022-11-20T08:23:13;101529.06;;;-0.58;100.00
13420;BME280;6781;58.440;15.470;2022-11-20T08:25:40;101529.13;;;-0.61;100.00
13420;BME280;6781;58.440;15.470;2022-11-20T08:28:08;101514.69;;;-0.62;100.00
13420;BME280;6781;58.440;15.470;2022-11-20T08:30:36;101512.38;;;-0.75;100.00
13420;BME280;6781;58.440;15.470;2022-11-20T08:33:12;101506.31;;;-0.69;100.00
13420;BME280;6781;58.440;15.470;2022-11-20T08:35:39;101506.28;;;-0.66;100.00
13420;BME280;6781;58.440;15.470;2022-11-20T08:38:06;101503.66;;;-0.61;100.00
13420;BME280;6781;58.440;15.470;2022-11-20T08:40:33;101501.09;;;-0.61;100.00
13420;BME280;6781;58.440;15.470;2022-11-20T08:43:00;101492.56;;;-0.59;100.00
13420;BME280;6781;58.440;15.470;2022-11-20T08:45:27;101498.31;;;-0.49;100.00
13420;BME280;6781;58.440;15.470;2022-11-20T08:47:59;101483.28;;;-0.61;100.00
13420;BME280;6781;58.440;15.470;2022-11-20T08:50:27;101485.63;;;-0.51;100.00
13420;BME280;6781;58.440;15.470;2022-11-20T08:53:01;101469.63;;;-0.57;100.00
13420;BME280;6781;58.440;15.470;2022-11-20T08:55:28;101471.13;;;-0.47;100.00
13420;BME280;6781;58.440;15.470;2022-11-20T08:57:54;101474.34;;;-0.39;100.00
13420;BME280;6781;58.440;15.470;2022-11-20T09:00:21;101467.53;;;-0.37;100.00
13420;BME280;6781;58.440;15.470;2022-11-20T09:02:48;101454.06;;;-0.44;100.00
13420;BME280;6781;58.440;15.470;2022-11-20T09:05:15;101453.25;;;-0.46;100.00
13420;BME280;6781;58.440;15.470;2022-11-20T09:07:43;101450.38;;;-0.29;100.00
13420;BME280;6781;58.440;15.470;2022-11-20T09:10:13;101444.50;;;-0.32;100.00
13420;BME280;6781;58.440;15.470;2022-11-20T09:12:56;101434.97;;;-0.23;100.00
13420;BME280;6781;58.440;15.470;2022-11-20T09:15:24;101424.09;;;-0.31;100.00
13420;BME280;6781;58.440;15.470;2022-11-20T09:17:51;101416.41;;;-0.29;100.00
13420;BME280;6781;58.440;15.470;2022-11-20T09:20:21;101406.44;;;-0.40;100.00
13420;BME280;6781;58.440;15.470;2022-11-20T09:22:56;101403.97;;;-0.45;100.00
13420;BME280;6781;58.440;15.470;2022-11-20T09:25:24;101410.47;;;-0.30;100.00
13420;BME280;6781;58.440;15.470;2022-11-20T09:27:54;101398.81;;;-0.42;100.00
13420;BME280;6781;58.440;15.470;2022-11-20T09:30:21;101396.13;;;-0.34;100.00
13420;BME280;6781;58.440;15.470;2022-11-20T09:32:48;101391.16;;;-0.40;100.00
13420;BME280;6781;58.440;15.470;2022-11-20T09:35:15;101406.91;;;-0.21;100.00
13420;BME280;6781;58.440;15.470;2022-11-20T09:37:43;101400.91;;;-0.19;100.00
13420;BME280;6781;58.440;15.470;2022-11-20T09:40:17;101392.50;;;-0.24;100.00
13420;BME280;6781;58.440;15.470;2022-11-20T09:42:47;101385.47;;;-0.13;100.00
13420;BME280;6781;58.440;15.470;2022-11-20T09:45:21;101377.03;;;-0.15;100.00
13420;BME280;6781;58.440;15.470;2022-11-20T09:47:57;101365.34;;;-0.25;100.00
13420;BME280;6781;58.440;15.470;2022-11-20T09:50:27;101359.41;;;-0.25;100.00
13420;BME280;6781;58.440;15.470;2022-11-20T09:53:01;101358.66;;;-0.29;100.00
13420;BME280;6781;58.440;15.470;2022-11-20T09:55:33;101351.66;;;-0.21;100.00
13420;BME280;6781;58.440;15.470;2022-11-20T09:58:01;101344.09;;;-0.24;100.00
13420;BME280;6781;58.440;15.470;2022-11-20T10:00:32;101341.28;;;-0.12;100.00
13420;BME280;6781;58.440;15.470;2022-11-20T10:02:59;101333.63;;;-0.12;100.00
13420;BME280;6781;58.440;15.470;2022-11-20T10:05:29;101341.34;;;-0.15;100.00
13420;BME280;6781;58.440;15.470;2022-11-20T10:08:01;101319.34;;;-0.19;100.00
13420;BME280;6781;58.440;15.470;2022-11-20T10:10:40;101324.66;;;-0.28;100.00
13420;BME280;6781;58.440;15.470;2022-11-20T10:13:18;101328.72;;;-0.21;100.00
13420;BME280;6781;58.440;15.470;2022-11-20T10:15:51;101324.66;;;-0.28;100.00
13420;BME280;6781;58.440;15.470;2022-11-20T10:18:27;101327.78;;;-0.17;100.00
13420;BME280;6781;58.440;15.470;2022-11-20T10:20:58;101326.25;;;-0.24;100.00
13420;BME280;6781;58.440;15.470;2022-11-20T10:23:35;101323.56;;;-0.18;100.00
13420;BME280;6781;58.440;15.470;2022-11-20T10:26:14;101324.50;;;-0.22;100.00
13420;BME280;6781;58.440;15.470;2022-11-20T10:28:48;101322.75;;;-0.20;100.00
13420;BME280;6781;58.440;15.470;2022-11-20T10:31:23;101318.38;;;-0.13;100.00
13420;BME280;6781;58.440;15.470;2022-11-20T10:33:51;101313.69;;;-0.31;100.00
13420;BME280;6781;58.440;15.470;2022-11-20T10:36:21;101310.81;;;-0.18;100.00
13420;BME280;6781;58.440;15.470;2022-11-20T10:38:51;101329.41;;;-0.13;100.00
13420;BME280;6781;58.440;15.470;2022-11-20T10:41:25;101316.00;;;-0.21;100.00
13420;BME280;6781;58.440;15.470;2022-11-20T10:43:59;101309.19;;;-0.20;100.00
13420;BME280;6781;58.440;15.470;2022-11-20T10:46:30;101314.25;;;-0.19;100.00
13420;BME280;6781;58.440;15.470;2022-11-20T10:49:16;101326.13;;;-0.18;100.00
13420;BME280;6781;58.440;15.470;2022-11-20T10:51:46;101321.16;;;-0.24;100.00
13420;BME280;6781;58.440;15.470;2022-11-20T10:54:17;101314.31;;;-0.22;100.00
13420;BME280;6781;58.440;15.470;2022-11-20T10:56:47;101321.16;;;-0.24;100.00
13420;BME280;6781;58.440;15.470;2022-11-20T10:59:27;101333.72;;;-0.16;100.00
13420;BME280;6781;58.440;15.470;2022-11-20T11:01:59;101328.69;;;-0.19;100.00
13420;BME280;6781;58.440;15.470;2022-11-20T11:04:30;101330.47;;;-0.23;100.00
13420;BME280;6781;58.440;15.470;2022-11-20T11:07:03;101324.56;;;-0.25;100.00
13420;BME280;6781;58.440;15.470;2022-11-20T11:09:33;101334.66;;;-0.20;100.00
13420;BME280;6781;58.440;15.470;2022-11-20T11:12:01;101339.72;;;-0.19;100.00
13420;BME280;6781;58.440;15.470;2022-11-20T11:14:31;101342.94;;;-0.11;100.00
13420;BME280;6781;58.440;15.470;2022-11-20T11:17:17;101338.06;;;-0.20;100.00
13420;BME280;6781;58.440;15.470;2022-11-20T11:19:45;101338.13;;;-0.23;100.00
13420;BME280;6781;58.440;15.470;2022-11-20T11:22:15;101334.56;;;-0.16;100.00
13420;BME280;6781;58.440;15.470;2022-11-20T11:24:43;101329.53;;;-0.19;100.00
13420;BME280;6781;58.440;15.470;2022-11-20T11:27:17;101323.63;;;-0.21;100.00
13420;BME280;6781;58.440;15.470;2022-11-20T11:29:46;101317.66;;;-0.20;100.00
13420;BME280;6781;58.440;15.470;2022-11-20T11:32:14;101317.53;;;-0.14;100.00
13420;BME280;6781;58.440;15.470;2022-11-20T11:34:41;101312.16;;;-0.02;100.00
13420;BME280;6781;58.440;15.470;2022-11-20T11:37:10;101310.38;;;0.00;100.00
13420;BME280;6781;58.440;15.470;2022-11-20T11:39:39;101305.13;;;0.07;100.00
13420;BME280;6781;58.440;15.470;2022-11-20T11:42:09;101293.66;;;-0.10;100.00
13420;BME280;6781;58.440;15.470;2022-11-20T11:44:43;101295.47;;;-0.15;100.00
13420;BME280;6781;58.440;15.470;2022-11-20T11:47:31;101290.38;;;-0.15;100.00
13420;BME280;6781;58.440;15.470;2022-11-20T11:50:07;101280.31;;;-0.21;100.00
13420;BME280;6781;58.440;15.470;2022-11-20T11:52:41;101283.44;;;-0.10;100.00
13420;BME280;6781;58.440;15.470;2022-11-20T11:55:09;101289.25;;;-0.03;100.00
13420;BME280;6781;58.440;15.470;2022-11-20T11:57:41;101273.53;;;-0.22;100.00
13420;BME280;6781;58.440;15.470;2022-11-20T12:00:14;101263.97;;;-0.12;100.00
13420;BME280;6781;58.440;15.470;2022-11-20T12:02:46;101254.84;;;-0.21;100.00
13420;BME280;6781;58.440;15.470;2022-11-20T12:05:17;101264.72;;;-0.09;100.00
13420;BME280;6781;58.440;15.470;2022-11-20T12:07:46;101253.31;;;-0.28;100.00
13420;BME280;6781;58.440;15.470;2022-11-20T12:10:18;101260.88;;;-0.25;100.00
13420;BME280;6781;58.440;15.470;2022-11-20T12:12:48;101249.91;;;-0.28;100.00
13420;BME280;6781;58.440;15.470;2022-11-20T12:15:20;101253.41;;;-0.32;100.00
13420;BME280;6781;58.440;15.470;2022-11-20T12:17:50;101251.78;;;-0.35;100.00
13420;BME280;6781;58.440;15.470;2022-11-20T12:20:17;101253.56;;;-0.39;100.00
13420;BME280;6781;58.440;15.470;2022-11-20T12:22:48;101255.81;;;-0.26;100.00
13420;BME280;6781;58.440;15.470;2022-11-20T12:25:22;101259.47;;;-0.38;100.00
13420;BME280;6781;58.440;15.470;2022-11-20T12:27:54;101256.72;;;-0.29;100.00
13420;BME280;6781;58.440;15.470;2022-11-20T12:30:27;101246.81;;;-0.41;100.00
13420;BME280;6781;58.440;15.470;2022-11-20T12:33:11;101261.97;;;-0.35;100.00
13420;BME280;6781;58.440;15.470;2022-11-20T12:35:48;101253.38;;;-0.31;100.00
13420;BME280;6781;58.440;15.470;2022-11-20T12:38:30;101257.59;;;-0.30;100.00
13420;BME280;6781;58.440;15.470;2022-11-20T12:41:04;101256.78;;;-0.32;100.00
13420;BME280;6781;58.440;15.470;2022-11-20T12:44:13;101245.97;;;-0.42;100.00
13420;BME280;6781;58.440;15.470;2022-11-20T12:47:11;101253.44;;;-0.34;100.00
13420;BME280;6781;58.440;15.470;2022-11-20T12:49:47;101250.03;;;-0.33;100.00
13420;BME280;6781;58.440;15.470;2022-11-20T12:52:36;101245.88;;;-0.37;100.00
13420;BME280;6781;58.440;15.470;2022-11-20T12:55:20;101253.66;;;-0.43;100.00
13420;BME280;6781;58.440;15.470;2022-11-20T12:58:00;101259.41;;;-0.35;100.00
13420;BME280;6781;58.440;15.470;2022-11-20T13:00:54;101242.53;;;-0.39;100.00